Time;durP1;ratioP1;P1;durP2;ratioP2;P2;SDS_P1;SDS_P2;PMS_P1;PMS_P2;Temp;Humidity;BMP_temperature;BMP_pressure;BME280_temperature;BME280_humidity;BME280_pressure;Samples;Min_cycle;Max_cycle;Signal;HPM_P1;HPM_P2
2023/08/24 00:01:42;;;;;;;9.17;4.93;;;;;18.70;101348.00;;;;5026941;28;20773;-71
2023/08/24 00:04:29;;;;;;;7.77;5.20;;;;;18.70;101348.00;;;;5022336;28;20300;-71
2023/08/24 00:07:15;;;;;;;8.97;4.67;;;;;18.70;101336.00;;;;5025230;28;20213;-70
2023/08/24 00:10:03;;;;;;;9.97;4.87;;;;;18.70;101330.00;;;;5015440;28;20368;-71
2023/08/24 00:12:50;;;;;;;7.70;5.53;;;;;18.70;101330.00;;;;5015627;28;20268;-71
2023/08/24 00:15:39;;;;;;;6.93;5.70;;;;;18.70;101337.00;;;;5014995;28;20218;-71
2023/08/24 00:18:26;;;;;;;7.83;5.20;;;;;18.60;101337.00;;;;5026386;28;20285;-71
2023/08/24 00:21:16;;;;;;;6.33;4.90;;;;;18.60;101335.00;;;;5027117;28;20217;-71
2023/08/24 00:24:03;;;;;;;7.83;5.50;;;;;18.60;101327.00;;;;5019518;28;20296;-71
2023/08/24 00:26:51;;;;;;;7.13;5.47;;;;;18.60;101320.00;;;;5019395;28;20213;-71
2023/08/24 00:29:38;;;;;;;10.00;5.93;;;;;18.60;101317.00;;;;5025443;28;20237;-71
2023/08/24 00:32:26;;;;;;;9.37;6.03;;;;;18.50;101310.00;;;;5017864;28;20209;-71
2023/08/24 00:35:12;;;;;;;8.67;5.73;;;;;18.60;101302.00;;;;5026059;28;20206;-70
2023/08/24 00:37:59;;;;;;;9.50;5.50;;;;;18.60;101298.00;;;;5019052;28;20242;-71
2023/08/24 00:40:46;;;;;;;8.20;6.57;;;;;18.50;101297.00;;;;5024542;28;20260;-70
2023/08/24 00:43:36;;;;;;;9.50;6.00;;;;;18.50;101306.00;;;;5025125;28;20299;-71
2023/08/24 00:46:23;;;;;;;10.87;5.43;;;;;18.40;101306.00;;;;5018940;28;20584;-71
2023/08/24 00:49:11;;;;;;;9.10;5.43;;;;;18.40;101304.00;;;;5019986;28;20229;-70
2023/08/24 00:51:57;;;;;;;9.80;6.33;;;;;18.50;101308.00;;;;5026000;28;20213;-71
2023/08/24 00:54:44;;;;;;;7.50;5.50;;;;;18.40;101302.00;;;;5025616;28;20218;-71
2023/08/24 00:57:30;;;;;;;8.10;5.67;;;;;18.40;101313.00;;;;5024188;28;20252;-71
2023/08/24 01:00:18;;;;;;;11.80;6.13;;;;;18.40;101304.00;;;;5024528;28;20408;-71
2023/08/24 01:03:05;;;;;;;9.50;6.27;;;;;18.40;101295.00;;;;5019863;28;20221;-70
2023/08/24 01:05:53;;;;;;;12.50;6.37;;;;;18.40;101296.00;;;;5022773;28;20212;-70
2023/08/24 01:08:40;;;;;;;9.43;6.67;;;;;18.30;101293.00;;;;5024360;28;20222;-71
2023/08/24 01:11:35;;;;;;;9.40;7.53;;;;;18.30;101301.00;;;;5026435;28;20221;-71
2023/08/24 01:14:31;;;;;;;8.97;6.93;;;;;18.30;101306.00;;;;5021980;28;20345;-70
2023/08/24 01:17:23;;;;;;;9.33;6.43;;;;;18.40;101308.00;;;;5019616;28;20225;-69
2023/08/24 01:20:11;;;;;;;9.93;6.73;;;;;18.30;101309.00;;;;5020006;28;20302;-70
2023/08/24 01:23:08;;;;;;;9.53;6.43;;;;;18.20;101306.00;;;;5026466;28;20733;-71
2023/08/24 01:26:00;;;;;;;10.40;7.00;;;;;18.20;101306.00;;;;5026094;28;20252;-71
2023/08/24 01:28:48;;;;;;;13.33;7.17;;;;;18.20;101300.00;;;;5023897;28;20241;-71
2023/08/24 01:31:34;;;;;;;11.27;6.93;;;;;18.10;101297.00;;;;5021055;28;20766;-71
2023/08/24 01:34:21;;;;;;;10.53;6.87;;;;;18.10;101289.00;;;;5026130;28;20702;-70
2023/08/24 01:37:08;;;;;;;9.97;7.37;;;;;18.10;101287.00;;;;5024460;28;20360;-70
2023/08/24 01:40:03;;;;;;;10.80;7.63;;;;;18.10;101282.00;;;;5025523;28;20237;-71
2023/08/24 01:42:53;;;;;;;12.97;7.50;;;;;18.10;101292.00;;;;5022362;28;20797;-71
2023/08/24 01:45:43;;;;;;;12.73;7.50;;;;;18.10;101291.00;;;;5023185;28;20218;-70
2023/08/24 01:48:30;;;;;;;14.03;7.03;;;;;18.10;101295.00;;;;5018354;28;20271;-70
2023/08/24 01:51:17;;;;;;;9.73;6.47;;;;;18.00;101287.00;;;;5024921;28;20690;-71
2023/08/24 01:54:04;;;;;;;9.40;7.03;;;;;18.00;101280.00;;;;5023007;28;20288;-70
2023/08/24 01:56:50;;;;;;;7.97;6.90;;;;;18.00;101283.00;;;;5028877;28;20337;-71
2023/08/24 01:59:38;;;;;;;10.17;7.07;;;;;18.00;101269.00;;;;5027391;28;20304;-71
2023/08/24 02:02:25;;;;;;;10.57;7.60;;;;;18.00;101273.00;;;;5020589;28;20225;-71
2023/08/24 02:05:12;;;;;;;11.27;7.77;;;;;18.00;101265.00;;;;5023360;28;20353;-71
2023/08/24 02:07:59;;;;;;;11.80;7.47;;;;;17.90;101263.00;;;;5024846;28;20205;-70
2023/08/24 02:10:46;;;;;;;12.07;7.60;;;;;18.00;101254.00;;;;5021213;28;20233;-72
2023/08/24 02:13:33;;;;;;;11.37;7.63;;;;;18.00;101253.00;;;;5028020;28;20291;-71
2023/08/24 02:16:20;;;;;;;11.47;7.20;;;;;18.00;101267.00;;;;5024672;28;20663;-71
2023/08/24 02:19:07;;;;;;;14.20;7.73;;;;;18.00;101263.00;;;;5025275;28;20233;-71
2023/08/24 02:21:53;;;;;;;12.60;7.90;;;;;18.00;101247.00;;;;5027312;28;20265;-70
2023/08/24 02:24:40;;;;;;;10.40;6.87;;;;;17.90;101248.00;;;;5024577;28;20267;-71
2023/08/24 02:27:26;;;;;;;10.13;6.97;;;;;17.90;101247.00;;;;5024546;28;20221;-71
2023/08/24 02:30:14;;;;;;;11.63;7.40;;;;;17.80;101251.00;;;;5028077;28;20911;-71
2023/08/24 02:33:02;;;;;;;10.43;7.47;;;;;17.80;101258.00;;;;5024772;28;22445;-71
2023/08/24 02:35:48;;;;;;;9.93;6.63;;;;;17.80;101257.00;;;;5023048;28;20264;-71
2023/08/24 02:38:37;;;;;;;12.77;7.33;;;;;17.80;101258.00;;;;5024832;28;21007;-70
2023/08/24 02:41:23;;;;;;;11.57;7.07;;;;;17.80;101266.00;;;;5023214;28;20241;-71
2023/08/24 02:44:10;;;;;;;10.80;6.97;;;;;17.70;101266.00;;;;5020858;28;20265;-71
2023/08/24 02:46:56;;;;;;;9.67;7.30;;;;;17.70;101268.00;;;;5027934;28;20209;-71
2023/08/24 02:49:44;;;;;;;11.20;7.27;;;;;17.70;101265.00;;;;5025781;28;20230;-71
2023/08/24 02:52:30;;;;;;;11.50;7.50;;;;;17.70;101253.00;;;;5027585;28;20368;-71
2023/08/24 02:55:17;;;;;;;11.83;7.83;;;;;17.70;101255.00;;;;5019227;28;20217;-71
2023/08/24 02:58:04;;;;;;;10.43;7.73;;;;;17.70;101254.00;;;;5025542;28;20264;-71
2023/08/24 03:00:51;;;;;;;10.50;7.83;;;;;17.70;101254.00;;;;5028428;28;20726;-71
2023/08/24 03:03:38;;;;;;;16.83;8.97;;;;;17.70;101267.00;;;;5029052;28;20220;-71
2023/08/24 03:06:26;;;;;;;13.17;7.60;;;;;17.80;101268.00;;;;5023532;28;20264;-70
2023/08/24 03:09:12;;;;;;;11.70;7.87;;;;;17.80;101267.00;;;;5025157;28;20241;-71
2023/08/24 03:11:59;;;;;;;10.33;7.20;;;;;17.90;101262.00;;;;5027858;28;20615;-71
2023/08/24 03:14:46;;;;;;;9.30;7.13;;;;;17.90;101269.00;;;;5027642;28;20281;-70
2023/08/24 03:17:32;;;;;;;10.37;7.77;;;;;17.90;101253.00;;;;5028541;28;20252;-71
2023/08/24 03:20:19;;;;;;;10.47;8.60;;;;;17.90;101247.00;;;;5021155;28;20230;-71
2023/08/24 03:23:08;;;;;;;15.40;8.60;;;;;17.90;101262.00;;;;5024826;28;20214;-71
2023/08/24 03:25:57;;;;;;;10.80;8.33;;;;;17.90;101255.00;;;;5026803;28;20222;-71
2023/08/24 03:28:44;;;;;;;11.97;7.80;;;;;17.90;101255.00;;;;5024931;28;20244;-71
2023/08/24 03:31:30;;;;;;;13.67;8.10;;;;;17.90;101241.00;;;;5023225;28;20225;-71
2023/08/24 03:34:17;;;;;;;13.10;7.97;;;;;17.90;101243.00;;;;5020835;28;20578;-71
2023/08/24 03:37:03;;;;;;;11.27;8.13;;;;;18.00;101242.00;;;;5026151;28;20208;-72
2023/08/24 03:39:51;;;;;;;16.13;7.77;;;;;18.00;101251.00;;;;5025502;28;20644;-71
2023/08/24 03:42:37;;;;;;;10.57;8.10;;;;;18.00;101251.00;;;;5024289;28;20218;-71
2023/08/24 03:45:24;;;;;;;12.77;7.40;;;;;18.00;101257.00;;;;5019729;28;20746;-71
2023/08/24 03:48:11;;;;;;;12.00;8.33;;;;;18.00;101245.00;;;;5020212;28;20695;-71
2023/08/24 03:50:58;;;;;;;11.03;7.77;;;;;18.10;101255.00;;;;5022388;28;20311;-70
2023/08/24 03:53:45;;;;;;;10.20;7.67;;;;;18.10;101241.00;;;;5020047;28;21848;-71
2023/08/24 03:56:32;;;;;;;11.30;7.70;;;;;18.10;101259.00;;;;5022497;28;20213;-71
2023/08/24 03:59:19;;;;;;;10.60;7.80;;;;;18.10;101262.00;;;;5027581;28;20361;-71
2023/08/24 04:02:06;;;;;;;10.97;8.80;;;;;18.20;101263.00;;;;5026814;28;20213;-71
2023/08/24 04:04:52;;;;;;;13.20;8.40;;;;;18.20;101252.00;;;;5026252;28;20586;-70
2023/08/24 04:07:40;;;;;;;14.17;8.67;;;;;18.20;101247.00;;;;5023419;28;20236;-71
2023/08/24 04:10:27;;;;;;;13.60;9.70;;;;;18.20;101247.00;;;;5019673;28;20237;-71
2023/08/24 04:13:14;;;;;;;9.17;7.97;;;;;18.30;101245.00;;;;5020759;28;20707;-71
2023/08/24 04:16:01;;;;;;;11.17;8.97;;;;;18.30;101238.00;;;;5023191;28;20218;-71
2023/08/24 04:18:47;;;;;;;12.63;9.40;;;;;18.30;101236.00;;;;5027031;28;20234;-70
2023/08/24 04:21:33;;;;;;;10.73;8.50;;;;;18.30;101224.00;;;;5025517;28;20384;-70
2023/08/24 04:24:19;;;;;;;15.07;8.87;;;;;18.40;101226.00;;;;5023323;28;20202;-70
2023/08/24 04:27:06;;;;;;;14.93;9.87;;;;;18.30;101224.00;;;;5024654;28;20217;-68
2023/08/24 04:29:54;;;;;;;16.50;10.47;;;;;18.40;101220.00;;;;5024330;28;20237;-70
2023/08/24 04:32:41;;;;;;;16.63;10.50;;;;;18.40;101219.00;;;;5026475;28;20213;-71
2023/08/24 04:35:27;;;;;;;19.33;10.67;;;;;18.50;101214.00;;;;5022105;28;20213;-70
2023/08/24 04:38:13;;;;;;;17.23;10.47;;;;;18.50;101201.00;;;;5018644;28;20209;-71
2023/08/24 04:41:00;;;;;;;15.37;10.23;;;;;18.50;101184.00;;;;5022300;28;20214;-71
2023/08/24 04:43:46;;;;;;;16.07;12.17;;;;;18.50;101179.00;;;;5024125;28;20233;-71
2023/08/24 04:46:34;;;;;;;18.97;12.97;;;;;18.50;101179.00;;;;5020330;28;20217;-71
2023/08/24 04:49:20;;;;;;;19.10;13.73;;;;;18.50;101176.00;;;;5026058;28;20326;-70
2023/08/24 04:52:07;;;;;;;18.07;14.10;;;;;18.60;101156.00;;;;5025920;28;20347;-71
2023/08/24 04:54:53;;;;;;;18.20;13.73;;;;;18.60;101146.00;;;;5026632;28;20217;-71
2023/08/24 04:57:42;;;;;;;19.97;14.17;;;;;18.60;101147.00;;;;5025383;28;20733;-71
2023/08/24 05:00:28;;;;;;;18.77;14.10;;;;;18.40;101148.00;;;;5024597;28;20369;-71
2023/08/24 05:03:16;;;;;;;22.20;14.67;;;;;18.50;101146.00;;;;5018267;28;20906;-70
2023/08/24 05:06:03;;;;;;;22.53;15.77;;;;;18.50;101149.00;;;;5024812;28;20272;-71
2023/08/24 05:08:49;;;;;;;19.30;14.90;;;;;18.50;101139.00;;;;5022933;28;20316;-71
2023/08/24 05:11:36;;;;;;;21.67;15.23;;;;;18.50;101140.00;;;;5024322;28;20284;-70
2023/08/24 05:14:22;;;;;;;19.23;15.27;;;;;18.50;101137.00;;;;5026032;28;20403;-71
2023/08/24 05:17:09;;;;;;;29.20;16.57;;;;;18.50;101132.00;;;;5026392;28;20238;-71
2023/08/24 05:19:57;;;;;;;22.93;15.67;;;;;18.60;101144.00;;;;5023312;28;20224;-71
2023/08/24 05:22:43;;;;;;;21.20;16.40;;;;;18.50;101141.00;;;;5025689;28;20213;-71
2023/08/24 05:25:30;;;;;;;20.00;15.80;;;;;18.50;101133.00;;;;5018874;28;20221;-71
2023/08/24 05:28:16;;;;;;;23.33;16.50;;;;;18.60;101142.00;;;;5025341;28;20213;-71
2023/08/24 05:31:03;;;;;;;24.17;16.37;;;;;18.60;101149.00;;;;5024275;28;20260;-70
2023/08/24 05:33:49;;;;;;;22.87;16.87;;;;;18.60;101141.00;;;;5025299;28;20260;-71
2023/08/24 05:36:37;;;;;;;24.97;17.40;;;;;18.70;101144.00;;;;5020559;28;20221;-70
2023/08/24 05:39:23;;;;;;;24.80;16.97;;;;;18.70;101154.00;;;;5026070;28;20626;-71
2023/08/24 05:42:10;;;;;;;22.33;17.60;;;;;18.70;101166.00;;;;5021217;28;20365;-70
2023/08/24 05:44:57;;;;;;;27.73;18.13;;;;;18.70;101158.00;;;;5023118;28;20749;-71
2023/08/24 05:47:43;;;;;;;24.60;17.03;;;;;18.70;101151.00;;;;5024267;28;20598;-70
2023/08/24 05:50:30;;;;;;;22.67;18.13;;;;;18.70;101152.00;;;;5025872;28;20777;-71
2023/08/24 05:53:17;;;;;;;23.50;18.43;;;;;18.70;101163.00;;;;5026059;28;20301;-71
2023/08/24 05:56:04;;;;;;;27.57;19.50;;;;;18.70;101145.00;;;;5024088;28;20220;-71
2023/08/24 05:58:50;;;;;;;23.57;18.67;;;;;18.80;101147.00;;;;5020022;28;20234;-71
2023/08/24 06:01:38;;;;;;;26.57;18.73;;;;;18.80;101153.00;;;;5020723;28;20236;-71
2023/08/24 06:04:24;;;;;;;29.90;20.93;;;;;18.90;101155.00;;;;5026104;28;20295;-71
2023/08/24 06:07:11;;;;;;;28.00;19.53;;;;;18.90;101158.00;;;;5024164;28;20256;-70
2023/08/24 06:09:59;;;;;;;25.67;19.97;;;;;19.00;101147.00;;;;5024632;28;20333;-71
2023/08/24 06:12:45;;;;;;;26.07;19.60;;;;;18.90;101153.00;;;;5018036;28;20695;-71
2023/08/24 06:15:32;;;;;;;26.20;19.37;;;;;19.00;101153.00;;;;5019433;28;20217;-71
2023/08/24 06:18:18;;;;;;;27.43;20.47;;;;;19.00;101156.00;;;;5025220;28;20217;-70
2023/08/24 06:21:04;;;;;;;28.97;20.17;;;;;19.00;101142.00;;;;5022486;28;20230;-70
2023/08/24 06:23:51;;;;;;;24.43;19.67;;;;;19.10;101138.00;;;;5025515;28;20264;-71
2023/08/24 06:26:39;;;;;;;28.87;19.57;;;;;19.10;101143.00;;;;5019667;28;20221;-71
2023/08/24 06:29:25;;;;;;;28.03;20.07;;;;;19.20;101134.00;;;;5024537;28;20341;-71
2023/08/24 06:32:11;;;;;;;26.80;21.17;;;;;19.30;101132.00;;;;5024621;28;20834;-70
2023/08/24 06:34:58;;;;;;;22.73;18.63;;;;;19.30;101127.00;;;;5022792;28;20221;-71
2023/08/24 06:37:44;;;;;;;23.87;19.63;;;;;19.30;101123.00;;;;5025687;28;20280;-71
2023/08/24 06:40:31;;;;;;;31.23;20.17;;;;;19.40;101125.00;;;;5026053;28;20592;-71
2023/08/24 06:43:19;;;;;;;27.10;19.73;;;;;19.40;101128.00;;;;5026963;28;20241;-70
2023/08/24 06:46:07;;;;;;;27.40;20.13;;;;;19.50;101124.00;;;;5023573;28;20202;-70
2023/08/24 06:48:54;;;;;;;24.60;19.13;;;;;19.50;101112.00;;;;5017989;28;20233;-70
2023/08/24 06:51:41;;;;;;;23.30;17.77;;;;;19.60;101102.00;;;;5016702;28;20849;-71
2023/08/24 06:54:27;;;;;;;21.57;17.73;;;;;19.60;101104.00;;;;5021193;28;20724;-71
2023/08/24 06:57:14;;;;;;;24.70;17.60;;;;;19.70;101096.00;;;;5023508;28;20317;-71
2023/08/24 07:00:06;;;;;;;21.17;17.30;;;;;19.70;101096.00;;;;5027541;28;20297;-71
2023/08/24 07:02:53;;;;;;;21.93;16.37;;;;;19.80;101075.00;;;;5027133;28;20215;-71
2023/08/24 07:05:40;;;;;;;21.57;17.33;;;;;19.90;101092.00;;;;5022698;28;20213;-71
2023/08/24 07:08:26;;;;;;;27.57;16.60;;;;;19.90;101080.00;;;;5027312;28;20209;-70
2023/08/24 07:11:14;;;;;;;22.53;16.53;;;;;19.90;101076.00;;;;5023850;28;20337;-71
2023/08/24 07:14:00;;;;;;;19.67;15.13;;;;;20.00;101068.00;;;;5026025;28;20289;-71
2023/08/24 07:16:48;;;;;;;21.03;15.10;;;;;20.10;101070.00;;;;5026010;28;20218;-71
2023/08/24 07:19:34;;;;;;;17.17;14.77;;;;;20.10;101070.00;;;;5020892;28;20737;-70
2023/08/24 07:22:21;;;;;;;23.33;14.90;;;;;20.20;101072.00;;;;5028506;28;20215;-71
2023/08/24 07:25:10;;;;;;;19.77;14.70;;;;;20.30;101067.00;;;;5025027;28;20321;-69
2023/08/24 07:27:58;;;;;;;18.30;13.80;;;;;20.30;101066.00;;;;5024160;28;20215;-71
2023/08/24 07:30:45;;;;;;;17.80;14.50;;;;;20.40;101073.00;;;;5021801;28;20250;-71
2023/08/24 07:33:33;;;;;;;20.77;13.50;;;;;20.50;101067.00;;;;5028436;28;20208;-69
2023/08/24 07:36:20;;;;;;;17.77;12.47;;;;;20.50;101075.00;;;;5026333;28;20219;-71
2023/08/24 07:39:06;;;;;;;16.93;13.33;;;;;20.70;101069.00;;;;5021859;28;20246;-71
2023/08/24 07:41:53;;;;;;;17.80;14.47;;;;;20.70;101067.00;;;;5026694;28;20835;-70
2023/08/24 07:44:40;;;;;;;20.07;15.17;;;;;20.80;101067.00;;;;5027509;28;20279;-71
2023/08/24 07:47:26;;;;;;;17.00;13.60;;;;;20.90;101061.00;;;;5020504;28;20215;-69
2023/08/24 07:50:14;;;;;;;17.20;12.27;;;;;21.00;101054.00;;;;5025604;28;20302;-70
2023/08/24 07:53:00;;;;;;;15.30;12.50;;;;;21.00;101065.00;;;;5025832;28;20267;-71
2023/08/24 07:55:47;;;;;;;17.27;12.93;;;;;21.20;101074.00;;;;5027338;28;20568;-71
2023/08/24 07:58:34;;;;;;;16.27;12.83;;;;;21.30;101073.00;;;;5023402;28;20753;-70
2023/08/24 08:01:20;;;;;;;16.23;12.03;;;;;21.40;101062.00;;;;5025693;28;20726;-71
2023/08/24 08:04:06;;;;;;;16.67;11.73;;;;;21.50;101067.00;;;;5024457;28;20216;-71
2023/08/24 08:06:55;;;;;;;15.77;10.60;;;;;21.70;101070.00;;;;5025800;28;20347;-70
2023/08/24 08:09:42;;;;;;;12.33;9.87;;;;;21.80;101060.00;;;;5024698;28;21343;-71
2023/08/24 08:12:29;;;;;;;13.83;10.50;;;;;22.00;101052.00;;;;5026635;28;20778;-70
2023/08/24 08:15:15;;;;;;;14.40;10.13;;;;;22.00;101050.00;;;;5024585;28;20288;-71
2023/08/24 08:18:02;;;;;;;13.10;9.53;;;;;22.20;101062.00;;;;5022834;28;20749;-70
2023/08/24 08:20:52;;;;;;;12.20;9.23;;;;;22.20;101061.00;;;;5020714;28;20414;-70
2023/08/24 08:23:40;;;;;;;13.13;9.17;;;;;22.40;101060.00;;;;5019864;28;20218;-71
2023/08/24 08:26:27;;;;;;;12.53;9.60;;;;;22.50;101067.00;;;;5026073;28;20761;-71
2023/08/24 08:29:13;;;;;;;11.50;9.43;;;;;22.60;101049.00;;;;5026484;28;20249;-69
2023/08/24 08:31:59;;;;;;;12.40;9.20;;;;;22.70;101052.00;;;;5020300;28;20221;-70
2023/08/24 08:34:47;;;;;;;15.03;10.03;;;;;22.90;101056.00;;;;5020533;28;20256;-71
2023/08/24 08:37:34;;;;;;;15.03;9.73;;;;;23.00;101056.00;;;;5025965;28;20217;-69
2023/08/24 08:40:22;;;;;;;13.50;9.27;;;;;23.20;101053.00;;;;5018641;28;20257;-69
2023/08/24 08:43:09;;;;;;;15.43;9.20;;;;;23.30;101053.00;;;;5022548;28;20212;-68
2023/08/24 08:45:57;;;;;;;14.20;8.90;;;;;23.40;101050.00;;;;5023244;28;20616;-69
2023/08/24 08:48:45;;;;;;;11.57;8.63;;;;;23.60;101053.00;;;;5024797;28;20212;-68
2023/08/24 08:51:34;;;;;;;12.23;7.97;;;;;23.70;101046.00;;;;5026144;28;20730;-68
2023/08/24 08:54:20;;;;;;;11.33;8.50;;;;;23.90;101048.00;;;;5017410;28;20225;-70
2023/08/24 08:57:09;;;;;;;11.57;7.60;;;;;24.10;101043.00;;;;5026254;28;20200;-68
2023/08/24 08:59:56;;;;;;;11.60;8.00;;;;;24.20;101029.00;;;;5012007;28;20233;-70
2023/08/24 09:02:45;;;;;;;11.77;7.57;;;;;24.50;101020.00;;;;5026632;28;20221;-70
2023/08/24 09:05:33;;;;;;;17.87;8.63;;;;;24.60;101022.00;;;;5025640;28;20702;-69
2023/08/24 09:08:21;;;;;;;10.13;7.60;;;;;24.70;101023.00;;;;5022894;28;20231;-67
2023/08/24 09:11:09;;;;;;;9.43;7.87;;;;;24.80;101024.00;;;;5020028;28;20594;-69
2023/08/24 09:13:57;;;;;;;8.30;7.37;;;;;24.80;101021.00;;;;5020769;28;20242;-68
2023/08/24 09:16:44;;;;;;;13.40;7.67;;;;;25.00;101016.00;;;;5019111;28;20269;-68
2023/08/24 09:19:32;;;;;;;13.37;7.23;;;;;25.10;101017.00;;;;5025336;28;20249;-70
2023/08/24 09:22:18;;;;;;;8.30;6.63;;;;;25.20;101013.00;;;;5025925;28;20233;-71
2023/08/24 09:25:06;;;;;;;9.73;6.47;;;;;25.30;101013.00;;;;5021497;28;20730;-70
2023/08/24 09:27:58;;;;;;;9.68;7.00;;;;;25.40;100995.00;;;;5025827;28;20221;-68
2023/08/24 09:30:46;;;;;;;12.50;6.50;;;;;25.50;100989.00;;;;5022464;28;20726;-66
2023/08/24 09:33:37;;;;;;;9.98;6.32;;;;;25.60;100975.00;;;;5025752;28;20214;-71
2023/08/24 09:36:23;;;;;;;9.65;6.47;;;;;25.70;100964.00;;;;5023355;28;20695;-70
2023/08/24 09:39:10;;;;;;;11.95;6.53;;;;;25.70;100955.00;;;;5025575;28;20233;-70
2023/08/24 09:42:02;;;;;;;8.13;5.93;;;;;25.80;100940.00;;;;5025817;28;20722;-70
2023/08/24 09:44:49;;;;;;;7.10;5.45;;;;;25.90;100939.00;;;;5018945;28;20682;-70
2023/08/24 09:47:37;;;;;;;8.00;6.50;;;;;25.90;100929.00;;;;5025564;28;20209;-68
2023/08/24 09:50:24;;;;;;;9.35;5.68;;;;;26.00;100915.00;;;;5019571;28;20253;-68
2023/08/24 09:53:16;;;;;;;8.60;5.43;;;;;26.10;100907.00;;;;5026203;28;20283;-68
2023/08/24 09:56:05;;;;;;;6.28;5.25;;;;;26.30;100902.00;;;;5018524;28;20209;-70
2023/08/24 09:58:54;;;;;;;7.35;4.35;;;;;26.40;100900.00;;;;5023791;28;20714;-69
2023/08/24 10:01:43;;;;;;;6.95;4.80;;;;;26.60;100897.00;;;;5024968;28;20345;-69
2023/08/24 10:04:35;;;;;;;5.80;5.03;;;;;26.70;100899.00;;;;5025516;28;20265;-70
2023/08/24 10:07:26;;;;;;;7.15;5.03;;;;;26.70;100902.00;;;;5021800;28;20213;-70
2023/08/24 10:10:13;;;;;;;12.07;4.70;;;;;26.80;100911.00;;;;5022612;28;20220;-68
2023/08/24 10:13:09;;;;;;;6.70;4.40;;;;;26.80;100907.00;;;;5024686;28;20221;-70
2023/08/24 10:15:57;;;;;;;6.43;4.63;;;;;26.90;100918.00;;;;5022455;28;20214;-70
2023/08/24 10:18:44;;;;;;;7.63;3.92;;;;;26.90;100933.00;;;;5028473;28;20580;-70
2023/08/24 10:21:33;;;;;;;10.95;4.65;;;;;27.00;100949.00;;;;5027962;28;20233;-70
2023/08/24 10:24:21;;;;;;;8.77;4.43;;;;;27.10;100950.00;;;;5021345;28;20234;-70
2023/08/24 10:27:10;;;;;;;7.10;4.30;;;;;27.20;100956.00;;;;5024175;28;20214;-71
2023/08/24 10:29:58;;;;;;;8.63;4.43;;;;;27.40;100946.00;;;;5020015;28;20768;-70
2023/08/24 10:32:48;;;;;;;8.70;4.63;;;;;27.50;100953.00;;;;5027447;28;20213;-70
2023/08/24 10:35:35;;;;;;;7.78;4.40;;;;;27.70;100961.00;;;;5026564;28;20210;-70
2023/08/24 10:38:28;;;;;;;8.30;4.13;;;;;27.80;100947.00;;;;5024612;28;20584;-70
2023/08/24 10:41:15;;;;;;;6.30;4.20;;;;;28.00;100943.00;;;;5023779;28;20761;-71
2023/08/24 10:44:08;;;;;;;6.82;4.90;;;;;28.20;100939.00;;;;5027717;28;20350;-71
2023/08/24 10:47:12;;;;;;;5.10;4.53;;;;;28.20;100937.00;;;;5021507;28;20210;-71
2023/08/24 10:50:00;;;;;;;5.85;4.43;;;;;28.20;100942.00;;;;5016370;28;20228;-71
2023/08/24 10:52:47;;;;;;;7.30;4.70;;;;;28.20;100924.00;;;;5025297;28;20706;-71
2023/08/24 10:55:36;;;;;;;7.95;4.70;;;;;28.20;100929.00;;;;5028712;28;20218;-70
2023/08/24 10:58:23;;;;;;;5.82;4.25;;;;;28.10;100922.00;;;;5027722;28;20277;-70
2023/08/24 11:01:16;;;;;;;9.57;4.55;;;;;28.20;100913.00;;;;5024080;28;20730;-70
2023/08/24 11:04:07;;;;;;;13.63;4.60;;;;;28.40;100899.00;;;;5028239;28;20217;-70
2023/08/24 11:06:55;;;;;;;5.78;4.30;;;;;28.30;100904.00;;;;5023995;28;20708;-71
2023/08/24 11:09:46;;;;;;;6.70;4.45;;;;;28.30;100887.00;;;;5025577;28;20357;-70
2023/08/24 11:13:05;;;;;;;6.28;4.10;;;;;28.50;100895.00;;;;5026121;28;20213;-70
2023/08/24 11:15:57;;;;;;;9.68;4.65;;;;;28.40;100897.00;;;;5021566;28;20230;-70
2023/08/24 11:18:44;;;;;;;5.38;4.35;;;;;28.40;100892.00;;;;5027835;28;20272;-70
2023/08/24 11:21:30;;;;;;;5.45;4.00;;;;;28.50;100892.00;;;;5027383;28;20210;-70
2023/08/24 11:24:17;;;;;;;6.25;4.20;;;;;28.50;100894.00;;;;5026586;28;20358;-70
2023/08/24 11:27:04;;;;;;;5.43;4.32;;;;;28.50;100892.00;;;;5019634;28;20214;-71
2023/08/24 11:30:00;;;;;;;8.57;4.50;;;;;28.40;100887.00;;;;5028111;28;20297;-70
2023/08/24 11:32:52;;;;;;;7.20;3.88;;;;;28.40;100883.00;;;;5024830;28;20225;-70
2023/08/24 11:35:41;;;;;;;5.35;3.83;;;;;28.40;100875.00;;;;5027750;28;20213;-70
2023/08/24 11:38:38;;;;;;;6.60;4.20;;;;;28.30;100863.00;;;;5027273;28;20245;-71
2023/08/24 11:41:25;;;;;;;5.57;4.32;;;;;28.20;100861.00;;;;5022100;28;20213;-71
2023/08/24 11:44:11;;;;;;;6.07;3.83;;;;;28.20;100857.00;;;;5023511;28;20217;-71
2023/08/24 11:47:15;;;;;;;9.48;4.57;;;;;28.10;100852.00;;;;5023563;28;20204;-69
2023/08/24 11:50:03;;;;;;;7.63;4.72;;;;;28.10;100865.00;;;;5031862;28;20225;-71
2023/08/24 11:52:49;;;;;;;7.85;4.30;;;;;28.10;100847.00;;;;5038771;28;20249;-71
2023/08/24 11:55:40;;;;;;;7.45;4.50;;;;;28.10;100858.00;;;;5039667;28;20222;-71
2023/08/24 11:58:50;;;;;;;7.40;4.57;;;;;28.00;100867.00;;;;5042859;28;20210;-70
2023/08/24 12:01:38;;;;;;;8.82;4.60;;;;;27.80;100863.00;;;;5045405;28;20272;-70
2023/08/24 12:04:26;;;;;;;5.45;4.45;;;;;27.70;100866.00;;;;5045645;28;20218;-70
2023/08/24 12:07:13;;;;;;;7.22;4.43;;;;;27.60;100870.00;;;;5037615;28;20272;-71
2023/08/24 12:10:01;;;;;;;9.30;4.88;;;;;27.50;100878.00;;;;5025317;28;20375;-70
2023/08/24 12:12:48;;;;;;;6.90;4.80;;;;;27.40;100874.00;;;;5035386;28;20218;-69
2023/08/24 12:15:36;;;;;;;11.68;5.03;;;;;27.20;100876.00;;;;5023258;28;20221;-70
2023/08/24 12:18:22;;;;;;;5.78;4.57;;;;;27.20;100879.00;;;;5022754;28;20214;-70
2023/08/24 12:21:11;;;;;;;8.15;4.82;;;;;27.20;100874.00;;;;5017188;28;20218;-70
2023/08/24 12:23:59;;;;;;;6.97;4.80;;;;;27.40;100876.00;;;;5020296;28;21059;-70
2023/08/24 12:26:57;;;;;;;7.32;5.18;;;;;27.60;100862.00;;;;5027607;28;20380;-70
2023/08/24 12:29:45;;;;;;;5.57;4.43;;;;;27.80;100854.00;;;;5025504;28;20233;-69
2023/08/24 12:32:43;;;;;;;7.25;5.15;;;;;27.90;100845.00;;;;5026837;28;20382;-70
2023/08/24 12:35:30;;;;;;;7.35;4.75;;;;;28.10;100833.00;;;;5026460;28;21502;-71
2023/08/24 12:38:18;;;;;;;6.82;4.70;;;;;28.30;100822.00;;;;5017911;28;20245;-70
2023/08/24 12:41:05;;;;;;;6.57;4.68;;;;;28.20;100809.00;;;;5025685;28;20349;-70
2023/08/24 12:43:52;;;;;;;6.40;4.57;;;;;28.30;100807.00;;;;5023638;28;20292;-71
2023/08/24 12:46:39;;;;;;;11.27;5.30;;;;;28.30;100801.00;;;;5023779;28;20237;-71
2023/08/24 12:49:25;;;;;;;8.15;4.80;;;;;28.20;100797.00;;;;5024997;28;20999;-70
2023/08/24 12:52:12;;;;;;;11.38;5.78;;;;;28.40;100785.00;;;;5023656;28;20317;-70
2023/08/24 12:55:00;;;;;;;7.00;5.07;;;;;28.50;100792.00;;;;5026622;28;20276;-69
2023/08/24 12:57:47;;;;;;;6.97;4.90;;;;;28.50;100797.00;;;;5017815;28;20268;-71
2023/08/24 13:00:33;;;;;;;8.07;4.63;;;;;28.40;100793.00;;;;5025210;28;20233;-71
2023/08/24 13:03:19;;;;;;;5.00;4.40;;;;;28.10;100790.00;;;;5025396;28;20225;-70
2023/08/24 13:06:06;;;;;;;12.55;5.03;;;;;27.90;100776.00;;;;5013189;28;20296;-70
2023/08/24 13:09:11;;;;;;;6.53;4.85;;;;;27.70;100771.00;;;;5013197;28;20337;-70
2023/08/24 13:12:00;;;;;;;5.32;4.72;;;;;27.50;100767.00;;;;5018910;28;20263;-69
2023/08/24 13:14:46;;;;;;;7.20;4.53;;;;;27.30;100750.00;;;;5025192;28;20249;-70
2023/08/24 13:17:33;;;;;;;7.05;4.68;;;;;27.20;100750.00;;;;5026133;28;20281;-70
2023/08/24 13:20:20;;;;;;;7.32;4.90;;;;;27.10;100736.00;;;;5020483;28;20221;-70
2023/08/24 13:23:06;;;;;;;5.68;4.80;;;;;27.00;100720.00;;;;5019676;28;20935;-71
2023/08/24 13:25:52;;;;;;;6.82;3.83;;;;;26.80;100706.00;;;;5024954;28;20774;-70
2023/08/24 13:28:40;;;;;;;9.02;4.30;;;;;26.80;100711.00;;;;5025939;28;20259;-70
2023/08/24 13:31:29;;;;;;;6.07;4.22;;;;;26.80;100731.00;;;;5020956;28;20736;-70
2023/08/24 13:34:16;;;;;;;9.70;4.68;;;;;26.60;100736.00;;;;5024757;28;20209;-70
2023/08/24 13:37:04;;;;;;;6.65;4.72;;;;;26.40;100747.00;;;;5025348;28;20702;-71
2023/08/24 13:39:50;;;;;;;5.85;4.60;;;;;26.20;100738.00;;;;5025786;28;20756;-70
2023/08/24 13:42:37;;;;;;;5.22;4.72;;;;;26.10;100739.00;;;;5020900;28;20293;-70